sensor_id;sensor_type;location;lat;lon;timestamp;P1;durP1;ratioP1;P2;durP2;ratioP2
5995;SDS011;3026;53.612;7.278;2022-10-26T00:00:45;14.37;;;8.00;;
5995;SDS011;3026;53.612;7.278;2022-10-26T00:03:13;13.23;;;7.73;;
5995;SDS011;3026;53.612;7.278;2022-10-26T00:05:40;12.37;;;8.43;;
5995;SDS011;3026;53.612;7.278;2022-10-26T00:08:08;14.20;;;8.50;;
5995;SDS011;3026;53.612;7.278;2022-10-26T00:10:36;14.30;;;8.47;;
5995;SDS011;3026;53.612;7.278;2022-10-26T00:13:04;11.63;;;7.23;;
5995;SDS011;3026;53.612;7.278;2022-10-26T00:15:38;12.43;;;7.97;;
5995;SDS011;3026;53.612;7.278;2022-10-26T00:18:07;10.97;;;7.20;;
5995;SDS011;3026;53.612;7.278;2022-10-26T00:20:38;16.13;;;8.50;;
5995;SDS011;3026;53.612;7.278;2022-10-26T00:23:05;12.50;;;9.50;;
5995;SDS011;3026;53.612;7.278;2022-10-26T00:25:32;19.00;;;8.50;;
5995;SDS011;3026;53.612;7.278;2022-10-26T00:27:59;16.67;;;7.77;;
5995;SDS011;3026;53.612;7.278;2022-10-26T00:30:25;13.30;;;7.83;;
5995;SDS011;3026;53.612;7.278;2022-10-26T00:32:54;14.50;;;7.87;;
5995;SDS011;3026;53.612;7.278;2022-10-26T00:35:21;13.70;;;8.27;;
5995;SDS011;3026;53.612;7.278;2022-10-26T00:37:48;16.53;;;9.23;;
5995;SDS011;3026;53.612;7.278;2022-10-26T00:40:19;10.73;;;7.93;;
5995;SDS011;3026;53.612;7.278;2022-10-26T00:42:46;12.77;;;8.27;;
5995;SDS011;3026;53.612;7.278;2022-10-26T00:45:20;13.10;;;8.37;;
5995;SDS011;3026;53.612;7.278;2022-10-26T00:47:51;13.27;;;10.10;;
5995;SDS011;3026;53.612;7.278;2022-10-26T00:50:24;14.07;;;8.27;;
5995;SDS011;3026;53.612;7.278;2022-10-26T00:52:54;13.63;;;9.10;;
5995;SDS011;3026;53.612;7.278;2022-10-26T00:55:23;12.53;;;8.40;;
5995;SDS011;3026;53.612;7.278;2022-10-26T00:57:54;12.80;;;8.47;;
5995;SDS011;3026;53.612;7.278;2022-10-26T01:00:22;17.03;;;9.17;;
5995;SDS011;3026;53.612;7.278;2022-10-26T01:02:49;17.03;;;8.97;;
5995;SDS011;3026;53.612;7.278;2022-10-26T01:05:18;9.93;;;8.13;;
5995;SDS011;3026;53.612;7.278;2022-10-26T01:07:46;15.20;;;9.10;;
5995;SDS011;3026;53.612;7.278;2022-10-26T01:10:14;16.57;;;7.93;;
5995;SDS011;3026;53.612;7.278;2022-10-26T01:12:41;13.03;;;8.60;;
5995;SDS011;3026;53.612;7.278;2022-10-26T01:15:08;12.23;;;8.70;;
5995;SDS011;3026;53.612;7.278;2022-10-26T01:17:46;15.00;;;8.00;;
5995;SDS011;3026;53.612;7.278;2022-10-26T01:20:39;13.73;;;8.53;;
5995;SDS011;3026;53.612;7.278;2022-10-26T01:23:29;17.13;;;8.43;;
5995;SDS011;3026;53.612;7.278;2022-10-26T01:32:11;12.40;;;8.17;;
5995;SDS011;3026;53.612;7.278;2022-10-26T01:34:42;13.60;;;8.60;;
5995;SDS011;3026;53.612;7.278;2022-10-26T01:37:12;16.80;;;8.47;;
5995;SDS011;3026;53.612;7.278;2022-10-26T01:39:43;11.17;;;8.17;;
5995;SDS011;3026;53.612;7.278;2022-10-26T01:42:15;10.37;;;7.87;;
5995;SDS011;3026;53.612;7.278;2022-10-26T01:44:45;13.33;;;8.37;;
5995;SDS011;3026;53.612;7.278;2022-10-26T01:47:16;12.93;;;8.93;;
5995;SDS011;3026;53.612;7.278;2022-10-26T01:49:47;12.73;;;8.67;;
5995;SDS011;3026;53.612;7.278;2022-10-26T01:52:18;12.40;;;7.80;;
5995;SDS011;3026;53.612;7.278;2022-10-26T01:54:45;12.83;;;7.90;;
5995;SDS011;3026;53.612;7.278;2022-10-26T01:57:13;12.37;;;8.37;;
5995;SDS011;3026;53.612;7.278;2022-10-26T01:59:50;12.00;;;8.23;;
5995;SDS011;3026;53.612;7.278;2022-10-26T02:02:38;9.90;;;8.00;;
5995;SDS011;3026;53.612;7.278;2022-10-26T02:05:35;10.67;;;8.23;;
5995;SDS011;3026;53.612;7.278;2022-10-26T02:08:14;10.33;;;8.17;;
5995;SDS011;3026;53.612;7.278;2022-10-26T02:10:51;12.00;;;8.40;;
5995;SDS011;3026;53.612;7.278;2022-10-26T02:13:28;12.57;;;8.17;;
5995;SDS011;3026;53.612;7.278;2022-10-26T02:16:05;12.27;;;8.13;;
5995;SDS011;3026;53.612;7.278;2022-10-26T02:18:43;11.10;;;8.13;;
5995;SDS011;3026;53.612;7.278;2022-10-26T02:21:18;12.07;;;8.50;;
5995;SDS011;3026;53.612;7.278;2022-10-26T02:23:53;9.63;;;7.70;;
5995;SDS011;3026;53.612;7.278;2022-10-26T02:26:26;12.37;;;8.30;;
5995;SDS011;3026;53.612;7.278;2022-10-26T02:29:01;8.73;;;7.80;;
5995;SDS011;3026;53.612;7.278;2022-10-26T02:31:46;13.13;;;8.70;;
5995;SDS011;3026;53.612;7.278;2022-10-26T02:34:30;10.87;;;7.80;;
5995;SDS011;3026;53.612;7.278;2022-10-26T02:37:20;13.30;;;7.80;;
5995;SDS011;3026;53.612;7.278;2022-10-26T02:40:08;12.70;;;7.87;;
5995;SDS011;3026;53.612;7.278;2022-10-26T02:42:44;10.33;;;8.27;;
5995;SDS011;3026;53.612;7.278;2022-10-26T02:45:16;12.63;;;7.40;;
5995;SDS011;3026;53.612;7.278;2022-10-26T02:47:47;13.63;;;8.23;;
5995;SDS011;3026;53.612;7.278;2022-10-26T02:50:16;12.43;;;9.13;;
5995;SDS011;3026;53.612;7.278;2022-10-26T02:52:47;10.93;;;8.17;;
5995;SDS011;3026;53.612;7.278;2022-10-26T02:55:24;8.43;;;7.23;;
5995;SDS011;3026;53.612;7.278;2022-10-26T02:57:57;14.90;;;8.57;;
5995;SDS011;3026;53.612;7.278;2022-10-26T03:00:26;12.27;;;8.33;;
5995;SDS011;3026;53.612;7.278;2022-10-26T03:02:58;12.73;;;8.23;;
5995;SDS011;3026;53.612;7.278;2022-10-26T03:05:29;11.80;;;7.87;;
5995;SDS011;3026;53.612;7.278;2022-10-26T03:07:57;12.33;;;8.43;;
5995;SDS011;3026;53.612;7.278;2022-10-26T03:10:25;12.90;;;8.63;;
5995;SDS011;3026;53.612;7.278;2022-10-26T03:12:52;11.60;;;8.80;;
5995;SDS011;3026;53.612;7.278;2022-10-26T03:15:20;13.90;;;8.60;;
5995;SDS011;3026;53.612;7.278;2022-10-26T03:17:47;11.30;;;8.33;;
5995;SDS011;3026;53.612;7.278;2022-10-26T03:20:13;12.53;;;7.97;;
5995;SDS011;3026;53.612;7.278;2022-10-26T03:22:42;10.10;;;7.20;;
5995;SDS011;3026;53.612;7.278;2022-10-26T03:25:09;9.87;;;7.87;;
5995;SDS011;3026;53.612;7.278;2022-10-26T03:27:36;11.90;;;8.13;;
5995;SDS011;3026;53.612;7.278;2022-10-26T03:30:03;13.73;;;8.17;;
5995;SDS011;3026;53.612;7.278;2022-10-26T03:32:31;12.70;;;7.83;;
5995;SDS011;3026;53.612;7.278;2022-10-26T03:34:58;11.03;;;8.20;;
5995;SDS011;3026;53.612;7.278;2022-10-26T03:37:25;13.17;;;8.80;;
5995;SDS011;3026;53.612;7.278;2022-10-26T03:39:53;17.30;;;8.60;;
5995;SDS011;3026;53.612;7.278;2022-10-26T03:42:20;13.03;;;8.93;;
5995;SDS011;3026;53.612;7.278;2022-10-26T03:44:47;12.30;;;9.07;;
5995;SDS011;3026;53.612;7.278;2022-10-26T03:47:14;12.27;;;8.57;;
5995;SDS011;3026;53.612;7.278;2022-10-26T03:49:41;13.67;;;9.67;;
5995;SDS011;3026;53.612;7.278;2022-10-26T03:52:08;14.67;;;9.70;;
5995;SDS011;3026;53.612;7.278;2022-10-26T03:54:35;14.30;;;9.63;;
5995;SDS011;3026;53.612;7.278;2022-10-26T03:57:03;11.80;;;8.80;;
5995;SDS011;3026;53.612;7.278;2022-10-26T03:59:30;12.73;;;9.47;;
5995;SDS011;3026;53.612;7.278;2022-10-26T04:01:57;17.73;;;10.10;;
5995;SDS011;3026;53.612;7.278;2022-10-26T04:04:24;13.17;;;9.67;;
5995;SDS011;3026;53.612;7.278;2022-10-26T04:06:50;14.77;;;10.20;;
5995;SDS011;3026;53.612;7.278;2022-10-26T04:09:17;16.63;;;10.00;;
5995;SDS011;3026;53.612;7.278;2022-10-26T04:11:44;15.57;;;9.60;;
5995;SDS011;3026;53.612;7.278;2022-10-26T04:14:12;14.50;;;9.77;;
5995;SDS011;3026;53.612;7.278;2022-10-26T04:16:39;18.57;;;10.63;;
5995;SDS011;3026;53.612;7.278;2022-10-26T04:19:06;20.23;;;10.53;;
5995;SDS011;3026;53.612;7.278;2022-10-26T04:21:33;16.73;;;11.00;;
5995;SDS011;3026;53.612;7.278;2022-10-26T04:23:59;17.23;;;10.67;;
5995;SDS011;3026;53.612;7.278;2022-10-26T04:26:26;12.10;;;9.43;;
5995;SDS011;3026;53.612;7.278;2022-10-26T04:28:53;16.07;;;10.33;;
5995;SDS011;3026;53.612;7.278;2022-10-26T04:31:21;15.00;;;10.40;;
5995;SDS011;3026;53.612;7.278;2022-10-26T04:33:48;16.17;;;10.80;;
5995;SDS011;3026;53.612;7.278;2022-10-26T04:36:15;18.03;;;11.03;;
5995;SDS011;3026;53.612;7.278;2022-10-26T04:38:42;13.83;;;9.60;;
5995;SDS011;3026;53.612;7.278;2022-10-26T04:41:09;15.20;;;9.70;;
5995;SDS011;3026;53.612;7.278;2022-10-26T04:43:36;17.80;;;10.47;;
5995;SDS011;3026;53.612;7.278;2022-10-26T04:46:02;14.63;;;10.67;;
5995;SDS011;3026;53.612;7.278;2022-10-26T04:48:31;16.60;;;11.00;;
5995;SDS011;3026;53.612;7.278;2022-10-26T04:50:58;16.63;;;10.90;;
5995;SDS011;3026;53.612;7.278;2022-10-26T04:53:25;14.23;;;9.67;;
5995;SDS011;3026;53.612;7.278;2022-10-26T04:55:55;14.80;;;11.00;;
5995;SDS011;3026;53.612;7.278;2022-10-26T04:58:22;17.10;;;11.33;;
5995;SDS011;3026;53.612;7.278;2022-10-26T05:00:49;15.50;;;10.47;;
5995;SDS011;3026;53.612;7.278;2022-10-26T05:03:16;13.07;;;9.40;;
5995;SDS011;3026;53.612;7.278;2022-10-26T05:05:45;15.87;;;10.37;;
5995;SDS011;3026;53.612;7.278;2022-10-26T05:08:12;13.27;;;8.77;;
5995;SDS011;3026;53.612;7.278;2022-10-26T05:10:39;18.27;;;10.90;;
5995;SDS011;3026;53.612;7.278;2022-10-26T05:13:06;14.97;;;10.30;;
5995;SDS011;3026;53.612;7.278;2022-10-26T05:15:34;16.77;;;10.17;;
5995;SDS011;3026;53.612;7.278;2022-10-26T05:18:01;19.87;;;11.80;;
5995;SDS011;3026;53.612;7.278;2022-10-26T05:20:31;17.57;;;10.57;;
5995;SDS011;3026;53.612;7.278;2022-10-26T05:23:03;17.30;;;10.90;;
5995;SDS011;3026;53.612;7.278;2022-10-26T05:25:33;19.03;;;11.17;;
5995;SDS011;3026;53.612;7.278;2022-10-26T05:28:02;14.53;;;10.63;;
5995;SDS011;3026;53.612;7.278;2022-10-26T05:30:30;17.40;;;10.10;;
5995;SDS011;3026;53.612;7.278;2022-10-26T05:32:58;16.90;;;11.83;;
5995;SDS011;3026;53.612;7.278;2022-10-26T05:35:27;21.63;;;12.37;;
5995;SDS011;3026;53.612;7.278;2022-10-26T05:37:54;21.93;;;11.27;;
5995;SDS011;3026;53.612;7.278;2022-10-26T05:40:22;20.70;;;12.30;;
5995;SDS011;3026;53.612;7.278;2022-10-26T05:42:49;18.50;;;11.13;;
5995;SDS011;3026;53.612;7.278;2022-10-26T05:45:16;21.00;;;11.93;;
5995;SDS011;3026;53.612;7.278;2022-10-26T05:47:44;20.47;;;12.00;;
5995;SDS011;3026;53.612;7.278;2022-10-26T05:50:12;20.60;;;10.37;;
5995;SDS011;3026;53.612;7.278;2022-10-26T05:52:42;19.47;;;11.37;;
5995;SDS011;3026;53.612;7.278;2022-10-26T05:55:10;22.43;;;11.83;;
5995;SDS011;3026;53.612;7.278;2022-10-26T05:57:41;16.03;;;10.37;;
5995;SDS011;3026;53.612;7.278;2022-10-26T06:00:09;20.33;;;10.93;;
5995;SDS011;3026;53.612;7.278;2022-10-26T06:02:43;19.33;;;11.33;;
5995;SDS011;3026;53.612;7.278;2022-10-26T06:05:24;16.07;;;10.27;;
5995;SDS011;3026;53.612;7.278;2022-10-26T06:07:53;19.97;;;11.43;;
5995;SDS011;3026;53.612;7.278;2022-10-26T06:10:21;18.40;;;10.13;;
5995;SDS011;3026;53.612;7.278;2022-10-26T06:12:50;17.43;;;10.93;;
5995;SDS011;3026;53.612;7.278;2022-10-26T06:15:18;17.90;;;9.93;;
5995;SDS011;3026;53.612;7.278;2022-10-26T06:17:49;14.47;;;10.20;;
5995;SDS011;3026;53.612;7.278;2022-10-26T06:20:28;18.77;;;10.67;;
5995;SDS011;3026;53.612;7.278;2022-10-26T06:23:18;18.80;;;10.57;;
5995;SDS011;3026;53.612;7.278;2022-10-26T06:26:03;18.97;;;10.23;;
5995;SDS011;3026;53.612;7.278;2022-10-26T06:28:43;17.70;;;11.00;;
5995;SDS011;3026;53.612;7.278;2022-10-26T06:31:15;15.93;;;11.23;;
5995;SDS011;3026;53.612;7.278;2022-10-26T06:33:42;19.43;;;12.10;;
5995;SDS011;3026;53.612;7.278;2022-10-26T06:36:13;18.20;;;11.73;;
5995;SDS011;3026;53.612;7.278;2022-10-26T06:38:47;17.67;;;10.83;;
5995;SDS011;3026;53.612;7.278;2022-10-26T06:41:16;14.97;;;11.10;;
5995;SDS011;3026;53.612;7.278;2022-10-26T06:43:48;21.60;;;10.80;;
5995;SDS011;3026;53.612;7.278;2022-10-26T06:46:20;18.57;;;12.00;;
5995;SDS011;3026;53.612;7.278;2022-10-26T06:48:56;26.07;;;13.47;;
5995;SDS011;3026;53.612;7.278;2022-10-26T06:51:30;17.00;;;10.90;;
5995;SDS011;3026;53.612;7.278;2022-10-26T06:54:09;19.93;;;11.93;;
5995;SDS011;3026;53.612;7.278;2022-10-26T06:56:42;21.80;;;11.17;;
5995;SDS011;3026;53.612;7.278;2022-10-26T06:59:14;24.43;;;12.33;;
5995;SDS011;3026;53.612;7.278;2022-10-26T07:01:46;18.37;;;12.27;;
5995;SDS011;3026;53.612;7.278;2022-10-26T07:04:13;17.73;;;12.43;;
5995;SDS011;3026;53.612;7.278;2022-10-26T07:06:40;19.67;;;12.23;;
5995;SDS011;3026;53.612;7.278;2022-10-26T07:09:07;20.57;;;11.53;;
5995;SDS011;3026;53.612;7.278;2022-10-26T07:11:34;16.80;;;11.00;;
5995;SDS011;3026;53.612;7.278;2022-10-26T07:14:00;18.73;;;11.07;;
5995;SDS011;3026;53.612;7.278;2022-10-26T07:16:29;16.57;;;10.07;;
5995;SDS011;3026;53.612;7.278;2022-10-26T07:18:56;18.57;;;10.37;;
5995;SDS011;3026;53.612;7.278;2022-10-26T07:21:22;15.87;;;11.10;;
5995;SDS011;3026;53.612;7.278;2022-10-26T07:23:49;16.53;;;11.73;;
5995;SDS011;3026;53.612;7.278;2022-10-26T07:26:17;16.13;;;10.97;;
5995;SDS011;3026;53.612;7.278;2022-10-26T07:28:46;17.80;;;10.90;;
5995;SDS011;3026;53.612;7.278;2022-10-26T07:31:13;19.90;;;10.30;;
5995;SDS011;3026;53.612;7.278;2022-10-26T07:33:42;16.70;;;10.60;;
5995;SDS011;3026;53.612;7.278;2022-10-26T07:36:10;17.63;;;11.00;;
5995;SDS011;3026;53.612;7.278;2022-10-26T07:38:37;16.30;;;10.53;;
5995;SDS011;3026;53.612;7.278;2022-10-26T07:41:04;20.00;;;10.87;;
5995;SDS011;3026;53.612;7.278;2022-10-26T07:43:31;15.67;;;10.40;;
5995;SDS011;3026;53.612;7.278;2022-10-26T07:45:58;17.43;;;10.43;;
5995;SDS011;3026;53.612;7.278;2022-10-26T07:48:25;15.30;;;10.53;;
5995;SDS011;3026;53.612;7.278;2022-10-26T07:50:53;15.07;;;9.40;;
5995;SDS011;3026;53.612;7.278;2022-10-26T07:53:20;18.73;;;10.87;;
5995;SDS011;3026;53.612;7.278;2022-10-26T07:55:51;14.23;;;9.90;;
5995;SDS011;3026;53.612;7.278;2022-10-26T07:58:19;12.80;;;9.23;;
5995;SDS011;3026;53.612;7.278;2022-10-26T08:00:47;23.17;;;11.80;;
5995;SDS011;3026;53.612;7.278;2022-10-26T08:03:15;13.83;;;9.30;;
5995;SDS011;3026;53.612;7.278;2022-10-26T08:05:44;15.00;;;9.23;;
5995;SDS011;3026;53.612;7.278;2022-10-26T08:08:12;12.33;;;9.07;;
5995;SDS011;3026;53.612;7.278;2022-10-26T08:10:41;14.83;;;9.83;;
5995;SDS011;3026;53.612;7.278;2022-10-26T08:13:08;11.20;;;8.30;;
5995;SDS011;3026;53.612;7.278;2022-10-26T08:15:35;13.03;;;9.03;;
5995;SDS011;3026;53.612;7.278;2022-10-26T08:18:02;12.70;;;8.00;;
5995;SDS011;3026;53.612;7.278;2022-10-26T08:20:28;11.60;;;7.77;;
5995;SDS011;3026;53.612;7.278;2022-10-26T08:22:56;11.40;;;7.57;;
5995;SDS011;3026;53.612;7.278;2022-10-26T08:25:24;11.80;;;7.03;;
5995;SDS011;3026;53.612;7.278;2022-10-26T08:27:51;11.30;;;7.57;;
5995;SDS011;3026;53.612;7.278;2022-10-26T08:30:19;9.47;;;7.60;;
5995;SDS011;3026;53.612;7.278;2022-10-26T08:32:46;14.83;;;8.10;;
5995;SDS011;3026;53.612;7.278;2022-10-26T08:35:13;11.63;;;7.47;;
5995;SDS011;3026;53.612;7.278;2022-10-26T08:37:40;12.80;;;8.00;;
5995;SDS011;3026;53.612;7.278;2022-10-26T08:40:08;13.13;;;8.10;;
5995;SDS011;3026;53.612;7.278;2022-10-26T08:42:43;7.43;;;6.50;;
5995;SDS011;3026;53.612;7.278;2022-10-26T08:45:17;12.60;;;7.50;;
5995;SDS011;3026;53.612;7.278;2022-10-26T08:47:52;10.20;;;7.47;;
5995;SDS011;3026;53.612;7.278;2022-10-26T08:50:24;7.83;;;6.03;;
5995;SDS011;3026;53.612;7.278;2022-10-26T08:52:54;8.73;;;6.57;;
5995;SDS011;3026;53.612;7.278;2022-10-26T08:55:29;11.70;;;7.00;;
5995;SDS011;3026;53.612;7.278;2022-10-26T08:58:03;9.03;;;6.43;;
5995;SDS011;3026;53.612;7.278;2022-10-26T09:00:38;12.80;;;6.97;;
5995;SDS011;3026;53.612;7.278;2022-10-26T09:03:10;9.60;;;6.13;;
5995;SDS011;3026;53.612;7.278;2022-10-26T09:05:46;11.53;;;6.17;;
5995;SDS011;3026;53.612;7.278;2022-10-26T09:08:25;13.73;;;6.53;;
5995;SDS011;3026;53.612;7.278;2022-10-26T09:11:03;13.90;;;6.27;;
5995;SDS011;3026;53.612;7.278;2022-10-26T09:13:41;9.70;;;6.27;;
5995;SDS011;3026;53.612;7.278;2022-10-26T09:16:21;8.27;;;5.60;;
5995;SDS011;3026;53.612;7.278;2022-10-26T09:19:02;7.77;;;5.33;;
5995;SDS011;3026;53.612;7.278;2022-10-26T09:21:46;8.40;;;5.80;;
5995;SDS011;3026;53.612;7.278;2022-10-26T09:24:20;7.77;;;5.37;;
5995;SDS011;3026;53.612;7.278;2022-10-26T09:26:56;8.30;;;5.93;;
5995;SDS011;3026;53.612;7.278;2022-10-26T09:29:33;8.83;;;5.10;;
5995;SDS011;3026;53.612;7.278;2022-10-26T09:32:04;10.60;;;5.77;;
5995;SDS011;3026;53.612;7.278;2022-10-26T09:34:44;6.40;;;5.07;;
5995;SDS011;3026;53.612;7.278;2022-10-26T09:37:14;5.50;;;4.87;;
5995;SDS011;3026;53.612;7.278;2022-10-26T09:39:45;8.00;;;4.90;;
5995;SDS011;3026;53.612;7.278;2022-10-26T09:42:19;7.90;;;5.10;;
5995;SDS011;3026;53.612;7.278;2022-10-26T09:44:51;7.33;;;4.93;;
5995;SDS011;3026;53.612;7.278;2022-10-26T09:47:30;9.43;;;5.30;;
5995;SDS011;3026;53.612;7.278;2022-10-26T09:50:03;10.30;;;5.40;;
5995;SDS011;3026;53.612;7.278;2022-10-26T09:52:40;9.23;;;4.87;;
5995;SDS011;3026;53.612;7.278;2022-10-26T09:55:09;5.70;;;4.90;;
5995;SDS011;3026;53.612;7.278;2022-10-26T09:57:38;7.97;;;5.73;;
5995;SDS011;3026;53.612;7.278;2022-10-26T10:00:10;7.93;;;5.57;;
5995;SDS011;3026;53.612;7.278;2022-10-26T10:02:39;11.30;;;5.37;;
5995;SDS011;3026;53.612;7.278;2022-10-26T10:05:27;7.67;;;4.83;;
5995;SDS011;3026;53.612;7.278;2022-10-26T10:08:08;6.93;;;5.30;;
5995;SDS011;3026;53.612;7.278;2022-10-26T10:10:37;5.83;;;4.53;;
5995;SDS011;3026;53.612;7.278;2022-10-26T10:13:13;6.10;;;4.77;;
5995;SDS011;3026;53.612;7.278;2022-10-26T10:15:48;8.13;;;5.10;;
5995;SDS011;3026;53.612;7.278;2022-10-26T10:18:17;7.23;;;5.30;;
5995;SDS011;3026;53.612;7.278;2022-10-26T10:20:49;9.10;;;5.07;;
5995;SDS011;3026;53.612;7.278;2022-10-26T10:23:23;13.30;;;4.67;;
5995;SDS011;3026;53.612;7.278;2022-10-26T10:25:57;7.70;;;4.83;;
5995;SDS011;3026;53.612;7.278;2022-10-26T10:28:29;9.57;;;5.03;;
5995;SDS011;3026;53.612;7.278;2022-10-26T10:30:59;6.77;;;4.87;;
5995;SDS011;3026;53.612;7.278;2022-10-26T10:33:34;6.17;;;4.67;;
5995;SDS011;3026;53.612;7.278;2022-10-26T10:36:04;9.23;;;4.97;;
5995;SDS011;3026;53.612;7.278;2022-10-26T10:38:39;8.03;;;4.73;;
5995;SDS011;3026;53.612;7.278;2022-10-26T10:41:17;8.80;;;5.30;;
5995;SDS011;3026;53.612;7.278;2022-10-26T10:43:55;9.70;;;4.73;;
5995;SDS011;3026;53.612;7.278;2022-10-26T10:46:35;7.93;;;5.10;;
5995;SDS011;3026;53.612;7.278;2022-10-26T10:49:03;8.47;;;4.23;;
5995;SDS011;3026;53.612;7.278;2022-10-26T10:51:35;9.47;;;5.10;;
5995;SDS011;3026;53.612;7.278;2022-10-26T10:54:05;7.37;;;4.50;;
5995;SDS011;3026;53.612;7.278;2022-10-26T10:56:44;13.03;;;5.03;;
5995;SDS011;3026;53.612;7.278;2022-10-26T10:59:19;8.50;;;4.63;;
5995;SDS011;3026;53.612;7.278;2022-10-26T11:02:05;7.00;;;4.50;;
5995;SDS011;3026;53.612;7.278;2022-10-26T11:04:56;6.10;;;4.27;;
5995;SDS011;3026;53.612;7.278;2022-10-26T11:07:40;6.30;;;4.40;;
5995;SDS011;3026;53.612;7.278;2022-10-26T11:10:12;9.17;;;5.23;;
5995;SDS011;3026;53.612;7.278;2022-10-26T11:12:45;8.57;;;4.53;;
5995;SDS011;3026;53.612;7.278;2022-10-26T11:15:17;7.80;;;4.40;;
5995;SDS011;3026;53.612;7.278;2022-10-26T11:17:51;7.07;;;3.80;;
5995;SDS011;3026;53.612;7.278;2022-10-26T11:20:28;16.17;;;4.73;;
5995;SDS011;3026;53.612;7.278;2022-10-26T11:22:58;5.50;;;4.53;;
5995;SDS011;3026;53.612;7.278;2022-10-26T11:25:30;9.67;;;4.73;;
5995;SDS011;3026;53.612;7.278;2022-10-26T11:28:03;4.60;;;3.93;;
5995;SDS011;3026;53.612;7.278;2022-10-26T11:30:36;7.20;;;4.27;;
5995;SDS011;3026;53.612;7.278;2022-10-26T11:33:14;5.03;;;4.33;;
5995;SDS011;3026;53.612;7.278;2022-10-26T11:35:47;10.60;;;4.33;;
5995;SDS011;3026;53.612;7.278;2022-10-26T11:38:22;6.90;;;4.33;;
5995;SDS011;3026;53.612;7.278;2022-10-26T11:40:58;5.50;;;4.00;;
5995;SDS011;3026;53.612;7.278;2022-10-26T11:43:29;9.07;;;4.50;;
5995;SDS011;3026;53.612;7.278;2022-10-26T11:46:03;5.87;;;4.43;;
5995;SDS011;3026;53.612;7.278;2022-10-26T11:48:36;5.90;;;4.17;;
5995;SDS011;3026;53.612;7.278;2022-10-26T11:51:11;8.53;;;4.10;;
5995;SDS011;3026;53.612;7.278;2022-10-26T11:53:43;5.70;;;4.33;;
5995;SDS011;3026;53.612;7.278;2022-10-26T11:56:13;9.37;;;5.70;;
5995;SDS011;3026;53.612;7.278;2022-10-26T11:58:45;9.00;;;4.37;;
5995;SDS011;3026;53.612;7.278;2022-10-26T12:01:12;6.67;;;3.67;;
5995;SDS011;3026;53.612;7.278;2022-10-26T12:03:43;7.13;;;4.03;;
5995;SDS011;3026;53.612;7.278;2022-10-26T12:06:14;6.03;;;3.67;;
5995;SDS011;3026;53.612;7.278;2022-10-26T12:08:50;6.57;;;3.60;;
5995;SDS011;3026;53.612;7.278;2022-10-26T12:11:24;6.20;;;2.60;;
5995;SDS011;3026;53.612;7.278;2022-10-26T12:14:02;8.27;;;2.93;;
5995;SDS011;3026;53.612;7.278;2022-10-26T12:16:44;5.40;;;2.43;;
5995;SDS011;3026;53.612;7.278;2022-10-26T12:19:20;4.90;;;2.43;;
5995;SDS011;3026;53.612;7.278;2022-10-26T12:21:55;3.60;;;2.20;;
5995;SDS011;3026;53.612;7.278;2022-10-26T12:24:34;6.30;;;2.50;;
5995;SDS011;3026;53.612;7.278;2022-10-26T12:27:03;4.93;;;2.70;;
5995;SDS011;3026;53.612;7.278;2022-10-26T12:29:35;6.93;;;2.77;;
5995;SDS011;3026;53.612;7.278;2022-10-26T12:35:03;4.30;;;2.40;;
5995;SDS011;3026;53.612;7.278;2022-10-26T12:41:14;4.03;;;2.60;;
5995;SDS011;3026;53.612;7.278;2022-10-26T12:43:45;8.23;;;3.00;;
5995;SDS011;3026;53.612;7.278;2022-10-26T12:52:24;9.73;;;3.87;;
5995;SDS011;3026;53.612;7.278;2022-10-26T12:57:57;5.70;;;2.80;;
5995;SDS011;3026;53.612;7.278;2022-10-26T13:00:40;4.23;;;2.90;;
5995;SDS011;3026;53.612;7.278;2022-10-26T13:03:20;4.93;;;2.57;;
5995;SDS011;3026;53.612;7.278;2022-10-26T13:06:01;5.20;;;2.70;;
5995;SDS011;3026;53.612;7.278;2022-10-26T13:08:44;2.73;;;2.00;;
5995;SDS011;3026;53.612;7.278;2022-10-26T13:11:15;6.50;;;2.73;;
5995;SDS011;3026;53.612;7.278;2022-10-26T13:13:50;6.30;;;2.60;;
5995;SDS011;3026;53.612;7.278;2022-10-26T13:16:19;5.77;;;2.87;;
5995;SDS011;3026;53.612;7.278;2022-10-26T13:18:46;5.67;;;2.67;;
5995;SDS011;3026;53.612;7.278;2022-10-26T13:21:14;5.00;;;2.80;;
5995;SDS011;3026;53.612;7.278;2022-10-26T13:23:44;5.90;;;3.00;;
5995;SDS011;3026;53.612;7.278;2022-10-26T13:26:13;4.20;;;2.53;;
5995;SDS011;3026;53.612;7.278;2022-10-26T13:28:45;8.13;;;2.33;;
5995;SDS011;3026;53.612;7.278;2022-10-26T13:34:19;5.37;;;3.20;;
5995;SDS011;3026;53.612;7.278;2022-10-26T13:36:48;5.40;;;2.40;;
5995;SDS011;3026;53.612;7.278;2022-10-26T13:39:20;3.80;;;2.80;;
5995;SDS011;3026;53.612;7.278;2022-10-26T13:41:50;5.03;;;2.93;;
5995;SDS011;3026;53.612;7.278;2022-10-26T13:44:21;5.63;;;2.63;;
5995;SDS011;3026;53.612;7.278;2022-10-26T13:46:52;4.27;;;2.57;;
5995;SDS011;3026;53.612;7.278;2022-10-26T13:49:23;4.90;;;2.50;;
5995;SDS011;3026;53.612;7.278;2022-10-26T13:51:54;5.23;;;2.80;;
5995;SDS011;3026;53.612;7.278;2022-10-26T13:54:27;3.97;;;2.47;;
5995;SDS011;3026;53.612;7.278;2022-10-26T13:57:04;4.80;;;2.60;;
5995;SDS011;3026;53.612;7.278;2022-10-26T13:59:40;5.73;;;2.33;;
5995;SDS011;3026;53.612;7.278;2022-10-26T14:02:17;6.73;;;3.23;;
5995;SDS011;3026;53.612;7.278;2022-10-26T14:04:51;5.43;;;2.53;;
5995;SDS011;3026;53.612;7.278;2022-10-26T14:07:20;5.17;;;3.03;;
5995;SDS011;3026;53.612;7.278;2022-10-26T14:09:53;7.67;;;3.47;;
5995;SDS011;3026;53.612;7.278;2022-10-26T14:12:22;7.77;;;3.63;;
5995;SDS011;3026;53.612;7.278;2022-10-26T14:14:52;3.87;;;3.10;;
5995;SDS011;3026;53.612;7.278;2022-10-26T14:17:20;6.13;;;3.00;;
5995;SDS011;3026;53.612;7.278;2022-10-26T14:19:50;7.40;;;3.53;;
5995;SDS011;3026;53.612;7.278;2022-10-26T14:22:18;5.10;;;2.90;;
5995;SDS011;3026;53.612;7.278;2022-10-26T14:24:52;4.90;;;3.10;;
5995;SDS011;3026;53.612;7.278;2022-10-26T14:27:22;7.20;;;3.40;;
5995;SDS011;3026;53.612;7.278;2022-10-26T14:29:50;11.47;;;3.50;;
5995;SDS011;3026;53.612;7.278;2022-10-26T14:32:22;6.83;;;3.47;;
5995;SDS011;3026;53.612;7.278;2022-10-26T14:34:51;5.73;;;3.20;;
5995;SDS011;3026;53.612;7.278;2022-10-26T14:37:23;3.83;;;2.87;;
5995;SDS011;3026;53.612;7.278;2022-10-26T14:40:05;7.77;;;3.00;;
5995;SDS011;3026;53.612;7.278;2022-10-26T14:42:39;7.10;;;4.03;;
5995;SDS011;3026;53.612;7.278;2022-10-26T14:45:21;9.37;;;3.53;;
5995;SDS011;3026;53.612;7.278;2022-10-26T14:47:50;6.17;;;3.30;;
5995;SDS011;3026;53.612;7.278;2022-10-26T14:50:18;8.57;;;2.93;;
5995;SDS011;3026;53.612;7.278;2022-10-26T14:52:48;6.93;;;3.57;;
5995;SDS011;3026;53.612;7.278;2022-10-26T14:55:18;8.90;;;3.93;;
5995;SDS011;3026;53.612;7.278;2022-10-26T14:57:47;8.03;;;3.50;;
5995;SDS011;3026;53.612;7.278;2022-10-26T15:00:18;7.67;;;3.20;;
5995;SDS011;3026;53.612;7.278;2022-10-26T15:02:46;8.47;;;3.67;;
5995;SDS011;3026;53.612;7.278;2022-10-26T15:05:17;5.33;;;3.23;;
5995;SDS011;3026;53.612;7.278;2022-10-26T15:07:45;6.60;;;3.80;;
5995;SDS011;3026;53.612;7.278;2022-10-26T15:13:19;9.87;;;2.90;;
5995;SDS011;3026;53.612;7.278;2022-10-26T15:15:51;5.73;;;3.47;;
5995;SDS011;3026;53.612;7.278;2022-10-26T15:18:20;5.43;;;3.13;;
5995;SDS011;3026;53.612;7.278;2022-10-26T15:20:50;9.40;;;4.83;;
5995;SDS011;3026;53.612;7.278;2022-10-26T15:23:18;10.87;;;3.70;;
5995;SDS011;3026;53.612;7.278;2022-10-26T15:25:52;7.30;;;3.80;;
5995;SDS011;3026;53.612;7.278;2022-10-26T15:28:21;5.47;;;3.27;;
5995;SDS011;3026;53.612;7.278;2022-10-26T15:31:00;9.60;;;3.10;;
5995;SDS011;3026;53.612;7.278;2022-10-26T15:33:28;7.13;;;3.33;;
5995;SDS011;3026;53.612;7.278;2022-10-26T15:36:10;7.87;;;3.20;;
5995;SDS011;3026;53.612;7.278;2022-10-26T15:38:40;5.37;;;2.87;;
5995;SDS011;3026;53.612;7.278;2022-10-26T15:41:13;8.33;;;3.27;;
5995;SDS011;3026;53.612;7.278;2022-10-26T15:43:42;6.10;;;3.53;;
5995;SDS011;3026;53.612;7.278;2022-10-26T15:46:09;7.30;;;4.20;;
5995;SDS011;3026;53.612;7.278;2022-10-26T15:48:36;5.73;;;3.20;;
5995;SDS011;3026;53.612;7.278;2022-10-26T15:51:04;9.57;;;3.77;;
5995;SDS011;3026;53.612;7.278;2022-10-26T15:53:32;9.50;;;4.00;;
5995;SDS011;3026;53.612;7.278;2022-10-26T15:56:03;7.83;;;4.10;;
5995;SDS011;3026;53.612;7.278;2022-10-26T15:58:40;7.47;;;4.20;;